Arrivo
Pos Biker Categoria Società Media Tempo F1 F2 F3 F4
   
1 CATTEDRA C. 360# 1°cat FCI MASTER 3 TEAM PREVIEW SEISPORT 29,29 Km/h 00:51:25 00:17:39 00:11:09 00:11:14 00:11:22
2 MARTELLOTTA G. 214# 2°cat FCI MASTER 3 TEAM PREVIEW SEISPORT 28,86 Km/h 00:52:11 00:17:50 00:11:24 00:11:31 00:11:26
3 TAGLIENTE A. 660# 1°cat FCI ELITE SPORT BIKEMANIA GROTTAGLIE 28,60 Km/h 00:52:40 00:18:09 00:11:31 00:11:35 00:11:25
4 TONDO F. 17# 1°cat UISP MASTER 1 ASDC AMICI DEL VELODROMO 28,59 Km/h 00:52:40 00:18:09 00:11:31 00:11:35 00:11:25
5 FITTIPALDI A. 441# 1°cat FCI MASTER 5 BIKEMANIA GROTTAGLIE 28,53 Km/h 00:52:47 00:18:11 00:11:25 00:11:39 00:11:32
6 PAGLIARA A. 79# 3°cat UISP MASTER 3 ASD TEAM AURISPA 28,07 Km/h 00:53:40 00:17:56 00:11:56 00:11:54 00:11:54
7 DADDABBO G. 3# 1°cat FCI MASTER 2 ATLETICO SALI IN SELLA PARKPRE RT 28,05 Km/h 00:53:42 00:17:52 00:11:55 00:11:59 00:11:56
8 RIZZO A. 15# 2°cat UISP MASTER 2 ASD TEAM AURISPA 27,93 Km/h 00:53:55 00:18:31 00:11:40 00:11:56 00:11:48
9 FELICE A. 620# 3°cat FCI MASTER 2 BIKEMANIA GROTTAGLIE 27,93 Km/h 00:53:55 00:18:42 00:11:28 00:11:57 00:11:48
10 ETTORRE G. 272# 4°cat FCI MASTER 3 BIKEMANIA GROTTAGLIE 27,88 Km/h 00:54:02 00:18:15 00:11:51 00:12:00 00:11:55
11 SIGNORELLO R. 43# 2°cat UISP ELITE SPORT ATLETICO SALI IN SELLA 27,81 Km/h 00:54:10 00:18:31 00:11:50 00:11:54 00:11:54
12 OLIVE F. 651# 3°cat FCI ELITE SPORT ASD NRG BIKE 27,58 Km/h 00:54:36 00:18:41 00:11:56 00:12:01 00:11:59
13 GATTULLI G. 226# 1°cat FCI MASTER 4 ASD NEW CYCLING TEAM 27,58 Km/h 00:54:36 00:18:22 00:11:58 00:12:11 00:12:05
14 BLEVE R. 169# 4°cat UISP MASTER 2 ASD TEAM AURISPA 27,57 Km/h 00:54:37 00:18:37 00:11:52 00:12:08 00:12:00
15 CAPUTO M. 75# 5°cat UISP MASTER 2 ASDC AMICI DEL VELODROMO 27,50 Km/h 00:54:45 00:18:23 00:12:07 00:12:08 00:12:08
16 CARROZZO L. 183# 4°cat UISP ELITE SPORT ASD MTB BIKERS ERCHIE 27,47 Km/h 00:54:49 00:18:39 00:12:04 00:12:04 00:12:03
17 TRIPALDI S. 112# 5°cat UISP ELITE SPORT CICLISTICA AVETRANESE 27,27 Km/h 00:55:13 00:18:53 00:12:07 00:12:07 00:12:06
18 CHIRIACO' C. 68# 5°cat UISP MASTER 3 ASD MTB MARTANO 26,97 Km/h 00:55:50 00:18:59 00:12:17 00:12:21 00:12:13
19 PICCIONE A. 13# 6°cat UISP ELITE SPORT ASD MTB CITTA DEGLI IMPERIALI 26,74 Km/h 00:56:19 00:19:16 00:12:30 00:12:18 00:12:15
20 COPPOLA G. 663# 2°cat FCI MASTER 1 CICLISPORT2000 TEAM 26,74 Km/h 00:56:19 00:19:09 00:12:18 00:12:35 00:12:18
21 MORLEO G. 91# 3°cat UISP MASTER 1 ASD MTB BIKERS ERCHIE 26,73 Km/h 00:56:20 00:19:12 00:12:15 00:12:34 00:12:19
22 MAGGIORE P. 21# 4°cat FCI MASTER 1 TEAM PUGLIABIKE 26,72 Km/h 00:56:21 00:19:29 00:12:22 00:12:18 00:12:12
23 MARRA R. 237# 5°cat UISP MASTER 1 RH BIKE TEAM 26,70 Km/h 00:56:24 00:19:30 00:12:17 00:12:21 00:12:17
24 VITALE G. 182# 2°cat FCI MASTER 4 ASD TEAM EUROBIKE 26,64 Km/h 00:56:32 00:19:10 00:12:31 00:12:39 00:12:12
25 ANGIULLI A. 195# 6°cat UISP MASTER 2 MTB TEBAIDE MASSAFRA 26,60 Km/h 00:56:37 00:20:10 00:13:11 00:10:15 00:13:01
26 CONVERTINO D. 255# 3°cat UISP MASTER 4 ASD MTB CITTA DEGLI IMPERIALI 26,54 Km/h 00:56:44 00:19:30 00:12:32 00:12:19 00:12:23
27 LEGGIERI O. 342# 6°cat UISP MASTER 3 MTB TEBAIDE MASSAFRA 26,48 Km/h 00:56:52 00:19:41 00:12:30 00:12:40 00:12:00
28 METRANGOLO A. 118# 7°cat UISP MASTER 3 ASD SPORT BIKE 26,47 Km/h 00:56:54 00:19:45 00:12:12 00:12:39 00:12:19
29 MOR A. 231# 7°cat FCI ELITE SPORT TEAM PREVIEW SEISPORT 26,38 Km/h 00:57:05 00:19:05 00:12:41 00:12:39 00:12:41
30 LOSITO V. 9# 8°cat UISP ELITE SPORT ATLETICO SALI IN SELLA 26,38 Km/h 00:57:05 00:19:50 00:12:30 00:12:33 00:12:12
31 LOIOTILE P. 367# 9°cat UISP ELITE SPORT ASD ATLETICO RUTIGLIANO 26,25 Km/h 00:57:22 00:20:29 00:13:31 00:10:04 00:13:18
32 CALABRISO M. 127# 1°cat UISP ALLIEVI ASD SPORT BIKE 26,23 Km/h 00:57:25 00:19:22 00:12:36 00:12:41 00:12:46
33 ALFARANO V. 83# 10°cat UISP ELITE SPORT CICLISTICA AVETRANESE 26,21 Km/h 00:57:28 00:19:26 00:12:31 00:12:41 00:12:49
34 CARAFA D. 7# 8°cat UISP MASTER 3 ALL BLACKS BIKE 26,18 Km/h 00:57:32 00:19:26 00:12:39 00:12:38 00:12:49
35 PRATO T. 176# 4°cat CSI MASTER 4 TEAM AMICI DI SIMONE 26,15 Km/h 00:57:36 00:19:26 00:12:36 00:12:28 00:13:06
36 PALAMA G. 114# 7°cat AICS MASTER 2 ASD PRO RACING LECCE BIKE TEAM 26,14 Km/h 00:57:36 00:19:10 00:12:55 00:12:41 00:12:50
37 MIALE S. 260# 9°cat FCI MASTER 3 BIKEMANIA GROTTAGLIE 26,04 Km/h 00:57:50 00:19:49 00:12:44 00:12:28 00:12:49
38 COSTANTINI A. 159# 2°cat UISP MASTER 5 ASD LA MANDRA 25,80 Km/h 00:58:23 00:19:38 00:12:39 00:13:02 00:13:04
39 GIANFREDA G. 110# 5°cat FCI MASTER 4 ASD TERRARUSSA CICLISMO PRESICCE ACQUARICA 25,80 Km/h 00:58:23 00:19:30 00:12:44 00:13:06 00:13:04
40 MACI C. 142# 3°cat CSI MASTER 5 TEAM AMICI DI SIMONE 25,79 Km/h 00:58:24 00:19:37 00:12:57 00:12:51 00:12:58
41 FERSURELLA G. 427# 8°cat FCI MASTER 2 ASD TEAM FUORISOGLIA 25,61 Km/h 00:58:48 00:19:23 00:12:39 00:13:12 00:13:35
42 FRANCO V. 69# 9°cat UISP MASTER 2 ATLETICO SALI IN SELLA 25,51 Km/h 00:59:02 00:19:48 00:13:08 00:13:02 00:13:04
43 PUGLIESE A. 586# 10°cat FCI MASTER 3 MTB BIKERS NOCI 25,51 Km/h 00:59:02 00:20:09 00:12:57 00:12:48 00:13:07
44 VIZZINO G. 227# 10°cat UISP MASTER 2 ASD MTB MARTANO 25,43 Km/h 00:59:13 00:19:59 00:12:59 00:12:57 00:13:18
45 MORLEO F. 90# 2°cat UISP ALLIEVI ASD MTB BIKERS ERCHIE 25,31 Km/h 00:59:30 00:19:49 00:12:58 00:13:14 00:13:30
46 GIGANTE V. 619# 1°cat UISP MASTER 6 ATLETICO SALI IN SELLA 25,10 Km/h 01:00:00 00:20:12 00:13:21 00:13:15 00:13:11
47 DICURSI S. 645# 11°cat UISP MASTER 2 ASD CICLISTICA AVETRANESE 24,99 Km/h 01:00:15 00:19:48 00:12:56 00:13:27 00:14:04
48 MAZZEO G. 143# 2°cat CSI MASTER 6 TEAM AMICI DI SIMONE 24,98 Km/h 01:00:17 00:20:30 00:13:12 00:13:10 00:13:25
49 MARINO P. 26# 3°cat FCI MASTER 6 ASD HERACLEA BIKE - MARINO BICI & SPORT 24,98 Km/h 01:00:17 00:20:18 00:13:22 00:13:12 00:13:25
50 SARACINO G. 115# 6°cat UISP MASTER 1 ASD MTB MARTANO 24,93 Km/h 01:00:24 00:20:36 00:12:59 00:13:12 00:13:38
51 POLITANO G. 48# 11°cat UISP MASTER 3 ASD SPORT BIKE 24,67 Km/h 01:01:03 00:20:20 00:13:17 00:13:39 00:13:47
52 SATALINO G. 229# 12°cat FCI MASTER 3 TEAM PREVIEW SEISPORT 24,62 Km/h 01:01:10 00:21:15 00:13:07 00:13:14 00:13:34
53 INTINI G. 633# 4°cat FCI MASTER 5 MTB BIKERS NOCI 24,52 Km/h 01:01:25 00:21:23 00:13:24 00:13:05 00:13:33
54 RAGGI A. 161# 6°cat UISP MASTER 4 ASD LA MANDRA 24,39 Km/h 01:01:45 00:20:41 00:13:49 00:13:42 00:13:33
55 RIZZO G. 209# 12°cat UISP MASTER 2 ASD TEAM AURISPA 24,37 Km/h 01:01:47 00:20:19 00:13:30 00:13:35 00:14:23
56 LORUSSO A. 400# 4°cat FCI MASTER 6 CHIALA' CYCLING TEAM LOCOROTONDO 24,32 Km/h 01:01:56 00:20:31 00:13:20 00:14:13 00:13:52
57 DONGIOVANNI F. 19# 7°cat UISP MASTER 4 ASD CICLO-CLUB SPONGANO 24,27 Km/h 01:02:03 00:20:21 00:13:45 00:13:53 00:14:03
58 LACIRIGNOLA O. 609# 13°cat FCI MASTER 2 MTB BIKERS NOCI 24,09 Km/h 01:02:31 00:20:52 00:13:29 00:13:54 00:14:15
59 SCARCIGLIA V. 162# 13°cat UISP MASTER 3 CICLISTICA AVETRANESE 24,06 Km/h 01:02:35 00:20:11 00:13:45 00:13:55 00:14:44
60 FIASCHI S. 166# 5°cat FCI MASTER 5 ASD TERRARUSSA CICLISMO PRESICCE ACQUARICA 24,06 Km/h 01:02:35 00:21:02 00:13:33 00:13:56 00:14:05
61 COMES F. 372# 14°cat UISP MASTER 2 RH BIKE TEAM 23,91 Km/h 01:02:58 00:21:01 00:14:01 00:13:56 00:14:00
62 DE MAURO A. 257# 14°cat UISP MASTER 3 ASD MTB CITTA DEGLI IMPERIALI 23,91 Km/h 01:02:59 00:20:42 00:13:41 00:14:05 00:14:31
63 POTENZA G. 179# 7°cat UISP MASTER 1 POLISPORT CICLO CLUB FASANO 23,65 Km/h 01:03:41 00:21:18 00:13:34 00:14:12 00:14:36
64 CONVERTINO G. 178# 15°cat UISP MASTER 2 POLISPORT CICLO CLUB FASANO 23,49 Km/h 01:04:06 00:21:12 00:14:00 00:14:40 00:14:15
65 GUARINI F. 614# 16°cat UISP MASTER 2 POLISPORT CICLO CLUB FASANO 23,48 Km/h 01:04:09 00:21:14 00:14:06 00:14:33 00:14:15
66 DE PASCALI S. 14# 1°cat UISP WOMEN ASD TEAM CYCLOBIKE 23,45 Km/h 01:04:13 00:21:31 00:13:53 00:14:25 00:14:25
67 CONVERSANO D. 160# 8°cat UISP MASTER 4 ASD LA MANDRA 23,25 Km/h 01:04:47 00:21:51 00:14:10 00:14:12 00:14:35
68 PERRONE S. 248# 17°cat FCI MASTER 2 ASD CICLISTI CAMPI 23,13 Km/h 01:05:06 00:21:25 00:14:30 00:14:18 00:14:53
69 RAINO F. 346# 3°cat UISP ALLIEVI ASD CICLISTI MTB SAN PANCRAZIO SALENTINO 23,09 Km/h 01:05:13 00:21:53 00:14:31 00:15:22 00:13:26
70 LOSITO A. 120# 4°cat UISP ALLIEVI ASD SALI IN SELLA 23,03 Km/h 01:05:23 00:21:42 00:14:16 00:14:49 00:14:36
71 SIMONE L. 121# 5°cat UISP ALLIEVI ASD SALI IN SELLA 22,90 Km/h 01:05:45 00:21:55 00:14:10 00:14:46 00:14:55
72 STURDA' G. 672# 5°cat ASI MASTER 6 TEAM CALCAGNI 22,83 Km/h 01:05:58 00:21:26 00:14:13 00:14:38 00:15:41
73 BRILLANTINA F. 247# 8°cat FCI MASTER 1 ASD CICLISTI CAMPI 22,82 Km/h 01:05:59 00:21:53 00:14:46 00:14:43 00:14:38
74 MACAGNINO S. 49# 6°cat UISP MASTER 6 ASD CICLO-CLUB SPONGANO null 00:50:52 00:21:26 00:14:29 00:14:57 null
75 PAGLIARI C. 6# 6°cat UISP MASTER 5 MTB TEBAIDE MASSAFRA null 00:51:38 00:22:19 00:14:45 00:14:34 null
76 ROSATI P. 324# 9°cat CSI MASTER 4 UPJ TARANTO null 00:51:42 00:22:03 00:14:44 00:14:55 null
77 ACHILLE F. 373# 6°cat UISP ALLIEVI TERRANOSTRA TEAM BIKE null 00:52:01 00:22:00 00:14:47 00:15:14 null
78 FAI M. 377# 7°cat UISP ALLIEVI ASD CICLISTICA AVETRANANESE null 00:52:22 00:21:54 00:14:54 00:15:34 null
79 NOTARISTEFANO P. 652# 1°cat UISP MASTER 7+ MTB TEBAIDE MASSAFRA null 00:55:56 00:23:27 00:17:02 00:15:28 null
80 DE PACE M. 446# 7°cat FCI MASTER 5 ASD SKOZZICAKUEZZI null 00:55:58 00:23:24 00:16:53 00:15:40 null
81 MANOLIO A. 28# 8°cat FCI MASTER 5 ASD HERACLEA BIKE - MARINO BICI & SPORT null 00:56:54 00:24:31 00:15:51 00:16:32 null
82 GIANGRANDE C. 63# 7°cat UISP MASTER 6 ASD CICLISTI MTB SAN PANCRAZIO SALENTINO null 00:57:32 00:24:46 00:16:36 00:16:11 null
83 SANASI S. 87# 8°cat UISP ALLIEVI ASD CICLISTI MTB SAN PANCRAZIO SALENTINO null 00:58:26 00:25:00 00:16:29 00:16:57 null
84 CAPOCCIA G. 634# 2°cat UISP WOMEN ASD MTB MARTANO null 00:59:25 00:25:19 00:17:39 00:16:27 null
85 MASSARI G. 438# 10°cat UISP MASTER 4 ASD MTB BIKERS ERCHIE null 00:59:30 00:24:50 00:17:13 00:17:27 null
86 PORTICELLI G. 100# 9°cat UISP MASTER 5 ATLETICO SALI IN SELLA null 01:01:41 00:28:08 00:15:22 00:18:10 null
87 MORLEO P. 76# 11°cat UISP MASTER 4 ASD CICLISTI MTB SAN PANCRAZIO SALENTINO null 00:38:13 00:22:50 00:15:23 null null
88 BRUTO F. 596# 9°cat UISP ALLIEVI ASD CICLISTICA AVETRANESE null 00:38:22 00:22:55 00:15:27 null null
89 DE VALERIO L. 301# 12°cat UISP MASTER 4 ASD MTB BIKERS ERCHIE null 00:38:46 00:22:51 00:15:56 null null
90 PACIFICO G. 640# 18°cat CSI MASTER 2 ASD SAN DONACI BIKE null 00:39:05 00:23:31 00:15:34 null null
91 DALBA P. 45# 11°cat UISP ELITE SPORT ATLETICO SALI IN SELLA null 00:49:20 00:19:49 00:29:32 null null